Time;durP1;ratioP1;P1;durP2;ratioP2;P2;SDS_P1;SDS_P2;PMS_P1;PMS_P2;Temp;Humidity;BMP_temperature;BMP_pressure;BME280_temperature;BME280_humidity;BME280_pressure;Samples;Min_cycle;Max_cycle;Signal;HPM_P1;HPM_P2
2022/01/14 00:01:50;;;;;;;30.80;18.10;;;;;;;;;;5004432;28;20202;-78
2022/01/14 00:04:16;;;;;;;26.63;18.13;;;;;;;;;;5007817;28;20182;-79
2022/01/14 00:06:42;;;;;;;27.85;17.77;;;;;;;;;;5022680;28;20182;-78
2022/01/14 00:09:11;;;;;;;28.92;17.70;;;;;;;;;;5019963;28;20193;-78
2022/01/14 00:11:39;;;;;;;25.98;16.60;;;;;;;;;;5022604;28;20563;-79
2022/01/14 00:16:35;;;;;;;29.63;18.48;;;;;;;;;;5023232;28;20228;-78
2022/01/14 00:19:01;;;;;;;26.27;17.30;;;;;;;;;;5021565;28;20276;-78
2022/01/14 00:21:27;;;;;;;30.35;18.60;;;;;;;;;;5021835;28;20304;-78
2022/01/14 00:24:30;;;;;;;31.15;18.38;;;;;;;;;;5020849;28;20408;-78
2022/01/14 00:32:45;;;;;;;28.35;17.20;;;;;;;;;;5020790;28;20194;-78
2022/01/14 00:35:11;;;;;;;32.00;19.00;;;;;;;;;;5004844;28;20193;-78
2022/01/14 00:37:37;;;;;;;29.92;17.17;;;;;;;;;;5023367;28;20178;-78
2022/01/14 00:40:03;;;;;;;33.17;19.88;;;;;;;;;;5010765;28;20214;-78
2022/01/14 00:42:29;;;;;;;28.17;16.70;;;;;;;;;;5005023;28;20286;-78
2022/01/14 00:44:55;;;;;;;24.50;17.60;;;;;;;;;;4990712;28;20182;-78
2022/01/14 00:47:21;;;;;;;30.90;16.52;;;;;;;;;;4986786;28;20186;-78
2022/01/14 00:49:47;;;;;;;28.33;17.50;;;;;;;;;;4984709;28;20182;-78
2022/01/14 00:52:13;;;;;;;24.98;16.50;;;;;;;;;;4991670;28;20179;-78
2022/01/14 00:54:39;;;;;;;25.20;16.60;;;;;;;;;;4990090;28;20282;-78
2022/01/14 00:59:34;;;;;;;24.52;16.52;;;;;;;;;;5003386;28;20194;-79
2022/01/14 01:02:01;;;;;;;24.35;15.23;;;;;;;;;;4984376;28;20204;-78
2022/01/14 01:04:31;;;;;;;27.70;16.52;;;;;;;;;;4990906;28;20187;-78
2022/01/14 01:06:58;;;;;;;24.20;15.43;;;;;;;;;;4990241;28;20183;-78
2022/01/14 01:09:25;;;;;;;20.55;15.35;;;;;;;;;;5005886;28;20186;-78
2022/01/14 01:12:07;;;;;;;24.58;16.50;;;;;;;;;;5005323;28;20628;-78
2022/01/14 01:17:12;;;;;;;23.92;15.20;;;;;;;;;;4992818;28;20674;-78
2022/01/14 01:19:38;;;;;;;20.08;14.10;;;;;;;;;;4989443;28;20193;-78
2022/01/14 01:22:04;;;;;;;22.02;14.10;;;;;;;;;;5007053;28;20210;-78
2022/01/14 01:24:30;;;;;;;21.75;15.45;;;;;;;;;;5004666;28;20240;-78
2022/01/14 01:26:57;;;;;;;24.17;14.25;;;;;;;;;;4990548;28;20281;-78
2022/01/14 01:31:53;;;;;;;25.35;15.00;;;;;;;;;;5002650;28;20179;-78
2022/01/14 01:34:21;;;;;;;19.90;14.48;;;;;;;;;;4991014;28;20176;-78
2022/01/14 01:36:49;;;;;;;16.95;13.60;;;;;;;;;;4989974;28;20218;-79
2022/01/14 01:39:17;;;;;;;21.80;13.98;;;;;;;;;;4999232;28;20222;-78
2022/01/14 01:41:44;;;;;;;22.92;14.52;;;;;;;;;;5019361;28;20202;-78
2022/01/14 01:44:11;;;;;;;28.10;15.35;;;;;;;;;;5019660;28;20194;-78
2022/01/14 01:46:39;;;;;;;33.53;14.40;;;;;;;;;;5021565;28;20642;-78
2022/01/14 01:49:06;;;;;;;20.40;15.32;;;;;;;;;;5021810;28;20519;-78
2022/01/14 01:51:32;;;;;;;18.20;13.25;;;;;;;;;;5019310;28;20238;-78
2022/01/14 01:53:58;;;;;;;18.55;13.20;;;;;;;;;;5018685;28;20175;-78
2022/01/14 01:56:24;;;;;;;22.48;13.35;;;;;;;;;;5021347;28;20236;-77
2022/01/14 01:58:50;;;;;;;21.42;14.30;;;;;;;;;;5021303;28;20206;-78
2022/01/14 02:01:17;;;;;;;24.10;14.30;;;;;;;;;;5023369;28;20178;-78
2022/01/14 02:03:43;;;;;;;23.80;14.38;;;;;;;;;;5023331;28;20206;-78
2022/01/14 02:06:09;;;;;;;20.65;14.27;;;;;;;;;;5024803;28;20182;-78
2022/01/14 02:08:35;;;;;;;22.10;13.15;;;;;;;;;;5025200;28;20178;-78
2022/01/14 02:11:01;;;;;;;21.25;13.60;;;;;;;;;;5022509;28;20226;-78
2022/01/14 02:13:28;;;;;;;19.30;13.98;;;;;;;;;;5024781;28;20224;-78
2022/01/14 02:26:48;;;;;;;22.65;14.15;;;;;;;;;;5023268;28;20206;-77
2022/01/14 02:29:14;;;;;;;18.95;13.90;;;;;;;;;;5007568;28;20183;-78
2022/01/14 02:31:40;;;;;;;19.58;13.30;;;;;;;;;;5024545;28;20179;-78
2022/01/14 02:34:06;;;;;;;22.10;13.90;;;;;;;;;;5024035;28;20178;-78
2022/01/14 02:36:33;;;;;;;17.77;14.25;;;;;;;;;;5023074;28;20187;-78
2022/01/14 02:39:00;;;;;;;20.25;12.32;;;;;;;;;;5020130;28;20222;-77
2022/01/14 02:41:26;;;;;;;27.15;14.40;;;;;;;;;;4990013;28;20199;-78
2022/01/14 02:43:52;;;;;;;17.05;12.50;;;;;;;;;;4989174;28;20205;-77
2022/01/14 02:46:18;;;;;;;18.63;13.43;;;;;;;;;;5009350;28;20171;-77
2022/01/14 02:48:44;;;;;;;20.60;12.35;;;;;;;;;;4992758;28;20190;-77
2022/01/14 02:51:13;;;;;;;22.30;12.40;;;;;;;;;;4992437;28;20221;-77
2022/01/14 02:56:06;;;;;;;17.75;11.85;;;;;;;;;;5003876;28;20222;-77
2022/01/14 02:58:34;;;;;;;14.45;11.65;;;;;;;;;;4993142;28;20700;-77
2022/01/14 03:01:01;;;;;;;21.27;14.98;;;;;;;;;;5006896;28;20199;-77
2022/01/14 03:03:27;;;;;;;20.90;13.93;;;;;;;;;;4992989;28;20211;-77
2022/01/14 03:05:53;;;;;;;25.13;14.63;;;;;;;;;;4992576;28;20186;-77
2022/01/14 03:08:20;;;;;;;22.75;13.75;;;;;;;;;;4988080;28;20175;-77
2022/01/14 03:10:48;;;;;;;17.27;13.48;;;;;;;;;;4980399;28;20198;-78
2022/01/14 03:13:14;;;;;;;20.45;13.25;;;;;;;;;;5005598;28;20202;-77
2022/01/14 03:15:40;;;;;;;19.27;14.35;;;;;;;;;;5006067;28;20249;-78
2022/01/14 03:18:06;;;;;;;16.45;13.70;;;;;;;;;;4992294;28;20266;-78
2022/01/14 03:23:05;;;;;;;18.05;13.50;;;;;;;;;;5003988;28;20215;-77
2022/01/14 03:25:51;;;;;;;18.95;11.88;;;;;;;;;;4992893;28;20175;-78
2022/01/14 03:28:26;;;;;;;20.55;13.75;;;;;;;;;;4992427;28;20190;-77
2022/01/14 03:30:53;;;;;;;20.52;13.45;;;;;;;;;;5005332;28;20213;-77
2022/01/14 03:33:22;;;;;;;20.90;12.90;;;;;;;;;;4991676;28;20206;-77
2022/01/14 03:35:49;;;;;;;18.63;12.15;;;;;;;;;;4991275;28;20190;-78
2022/01/14 03:38:15;;;;;;;17.63;12.32;;;;;;;;;;5002335;28;20184;-77
2022/01/14 03:40:41;;;;;;;21.38;14.30;;;;;;;;;;5021902;28;20233;-78
2022/01/14 03:43:07;;;;;;;19.20;13.52;;;;;;;;;;5021908;28;20301;-78
2022/01/14 03:45:34;;;;;;;18.80;13.50;;;;;;;;;;5018290;28;20178;-78
2022/01/14 03:48:00;;;;;;;18.08;13.13;;;;;;;;;;5021733;28;20464;-76
2022/01/14 03:50:27;;;;;;;15.77;12.65;;;;;;;;;;5023029;28;20344;-78
2022/01/14 03:52:53;;;;;;;20.25;13.80;;;;;;;;;;5022310;28;20174;-78
2022/01/14 03:55:19;;;;;;;20.27;12.57;;;;;;;;;;5023614;28;20535;-78
2022/01/14 03:57:45;;;;;;;24.27;13.43;;;;;;;;;;5022650;28;20261;-78
2022/01/14 04:00:11;;;;;;;16.50;12.13;;;;;;;;;;5022295;28;20214;-77
2022/01/14 04:02:37;;;;;;;20.85;12.82;;;;;;;;;;5022286;28;20245;-78
2022/01/14 04:05:03;;;;;;;15.32;11.02;;;;;;;;;;5020984;28;20528;-78
2022/01/14 04:07:29;;;;;;;17.38;13.02;;;;;;;;;;5023543;28;20221;-77
2022/01/14 04:09:55;;;;;;;18.15;13.57;;;;;;;;;;5022009;28;20190;-77
2022/01/14 04:12:34;;;;;;;17.65;13.20;;;;;;;;;;5020537;28;20186;-78
2022/01/14 04:17:26;;;;;;;18.05;13.13;;;;;;;;;;5020772;28;20214;-78
2022/01/14 04:19:52;;;;;;;20.83;14.23;;;;;;;;;;5021874;28;20178;-78
2022/01/14 04:22:18;;;;;;;18.23;11.57;;;;;;;;;;5022414;28;20206;-77
2022/01/14 04:24:44;;;;;;;19.55;13.57;;;;;;;;;;5022086;28;20182;-78
2022/01/14 04:27:10;;;;;;;21.33;13.60;;;;;;;;;;5022194;28;20680;-77
2022/01/14 04:29:36;;;;;;;19.58;12.95;;;;;;;;;;5020372;28;20217;-78
2022/01/14 04:32:02;;;;;;;18.85;11.70;;;;;;;;;;5021076;28;20203;-78
2022/01/14 04:34:28;;;;;;;15.32;11.35;;;;;;;;;;5022457;28;20584;-78
2022/01/14 04:36:54;;;;;;;20.60;12.15;;;;;;;;;;5020844;28;20186;-78
2022/01/14 04:39:20;;;;;;;17.33;10.98;;;;;;;;;;5021322;28;20218;-77
2022/01/14 04:41:46;;;;;;;20.95;12.50;;;;;;;;;;5020095;28;20251;-78
2022/01/14 04:44:12;;;;;;;17.88;12.82;;;;;;;;;;5020967;28;20187;-78
2022/01/14 04:49:04;;;;;;;19.58;13.00;;;;;;;;;;5022194;28;20183;-78
2022/01/14 04:51:30;;;;;;;17.58;11.20;;;;;;;;;;5021505;28;20675;-78
2022/01/14 04:53:56;;;;;;;19.48;12.32;;;;;;;;;;5021889;28;20191;-78
2022/01/14 04:56:22;;;;;;;18.25;11.57;;;;;;;;;;5021463;28;20228;-78
2022/01/14 04:58:48;;;;;;;22.08;13.93;;;;;;;;;;5022302;28;20209;-78
2022/01/14 05:01:14;;;;;;;15.75;11.85;;;;;;;;;;5021856;28;20178;-78
2022/01/14 05:03:40;;;;;;;18.40;12.23;;;;;;;;;;5021829;28;20248;-78
2022/01/14 05:06:07;;;;;;;18.80;12.57;;;;;;;;;;5020850;28;20206;-78
2022/01/14 05:08:39;;;;;;;21.10;12.25;;;;;;;;;;5021344;28;20376;-78
2022/01/14 05:11:22;;;;;;;16.17;11.65;;;;;;;;;;5020437;28;20191;-78
2022/01/14 05:13:49;;;;;;;17.80;12.10;;;;;;;;;;5019531;28;20237;-78
2022/01/14 05:16:15;;;;;;;17.48;11.10;;;;;;;;;;5021251;28;20229;-78
2022/01/14 05:18:41;;;;;;;18.75;12.73;;;;;;;;;;5021485;28;20542;-78
2022/01/14 05:21:07;;;;;;;17.65;12.93;;;;;;;;;;5021501;28;20186;-78
2022/01/14 05:23:33;;;;;;;15.05;12.50;;;;;;;;;;5020761;28;20209;-78
2022/01/14 05:25:59;;;;;;;18.13;12.48;;;;;;;;;;5019479;28;20187;-78
2022/01/14 05:28:25;;;;;;;15.90;11.88;;;;;;;;;;5022499;28;20209;-78
2022/01/14 05:30:51;;;;;;;19.58;11.93;;;;;;;;;;5019503;28;20186;-78
2022/01/14 05:33:18;;;;;;;18.30;12.15;;;;;;;;;;5019619;28;20194;-78
2022/01/14 05:35:44;;;;;;;18.35;12.13;;;;;;;;;;5022778;28;20187;-78
2022/01/14 05:38:10;;;;;;;20.60;13.27;;;;;;;;;;5023358;28;20647;-78
2022/01/14 05:40:36;;;;;;;18.13;11.32;;;;;;;;;;5012007;28;20229;-77
2022/01/14 05:43:02;;;;;;;22.67;13.02;;;;;;;;;;5008629;28;20278;-78
2022/01/14 05:45:28;;;;;;;18.85;11.82;;;;;;;;;;5008321;28;20176;-78
2022/01/14 05:47:54;;;;;;;15.75;10.82;;;;;;;;;;5008283;28;20205;-78
2022/01/14 05:50:22;;;;;;;18.00;13.35;;;;;;;;;;4990999;28;20539;-78
2022/01/14 05:52:49;;;;;;;17.45;12.85;;;;;;;;;;4990318;28;20199;-78
2022/01/14 05:55:16;;;;;;;17.77;11.57;;;;;;;;;;4994856;28;20210;-78
2022/01/14 05:57:42;;;;;;;19.08;12.50;;;;;;;;;;4993630;28;20455;-78
2022/01/14 06:00:13;;;;;;;18.65;11.75;;;;;;;;;;4992507;28;20206;-78
2022/01/14 06:02:39;;;;;;;17.50;13.32;;;;;;;;;;5007368;28;20813;-78
2022/01/14 06:05:05;;;;;;;20.13;14.45;;;;;;;;;;4988028;28;20203;-78
2022/01/14 06:07:31;;;;;;;20.15;11.80;;;;;;;;;;4994070;28;20177;-78
2022/01/14 06:09:57;;;;;;;20.48;12.90;;;;;;;;;;4992600;28;20458;-78
2022/01/14 06:12:23;;;;;;;20.38;12.50;;;;;;;;;;4992963;28;20187;-78
2022/01/14 06:14:49;;;;;;;17.60;12.40;;;;;;;;;;5007881;28;20198;-78
2022/01/14 06:17:15;;;;;;;22.50;14.95;;;;;;;;;;4988722;28;20525;-78
2022/01/14 06:19:41;;;;;;;16.55;11.82;;;;;;;;;;4992678;28;20695;-78
2022/01/14 06:22:07;;;;;;;24.77;13.90;;;;;;;;;;4997890;28;20214;-79
2022/01/14 06:24:33;;;;;;;18.70;12.30;;;;;;;;;;5012018;28;20184;-78
2022/01/14 06:26:59;;;;;;;22.08;12.27;;;;;;;;;;4993126;28;20209;-78
2022/01/14 06:29:25;;;;;;;21.10;13.13;;;;;;;;;;4990700;28;20191;-78
2022/01/14 06:31:51;;;;;;;20.38;12.15;;;;;;;;;;4989330;28;20175;-78
2022/01/14 06:34:17;;;;;;;22.13;13.05;;;;;;;;;;4993420;28;20183;-78
2022/01/14 06:36:43;;;;;;;19.95;12.98;;;;;;;;;;4992773;28;20183;-78
2022/01/14 06:39:10;;;;;;;19.65;14.20;;;;;;;;;;4999698;28;20218;-78
2022/01/14 06:41:37;;;;;;;20.48;13.88;;;;;;;;;;5024435;28;20185;-79
2022/01/14 06:44:03;;;;;;;22.17;16.40;;;;;;;;;;5022972;28;20206;-79
2022/01/14 06:46:29;;;;;;;23.20;14.20;;;;;;;;;;5025098;28;20177;-78
2022/01/14 06:48:55;;;;;;;17.40;12.57;;;;;;;;;;5024035;28;20213;-79
2022/01/14 06:51:21;;;;;;;22.05;14.32;;;;;;;;;;5022990;28;20266;-79
2022/01/14 06:53:47;;;;;;;22.13;13.65;;;;;;;;;;5021981;28;20475;-79
2022/01/14 06:56:14;;;;;;;22.65;13.90;;;;;;;;;;5022550;28;20543;-78
2022/01/14 06:58:40;;;;;;;22.65;13.63;;;;;;;;;;5025576;28;20179;-79
2022/01/14 07:01:07;;;;;;;24.27;13.82;;;;;;;;;;5022609;28;20186;-78
2022/01/14 07:03:33;;;;;;;23.25;13.77;;;;;;;;;;5023996;28;20198;-79
2022/01/14 07:05:59;;;;;;;14.00;11.70;;;;;;;;;;5023714;28;20186;-78
2022/01/14 07:08:25;;;;;;;18.85;14.45;;;;;;;;;;5022105;28;20191;-79
2022/01/14 07:10:51;;;;;;;22.48;14.23;;;;;;;;;;5024314;28;20550;-79
2022/01/14 07:13:17;;;;;;;23.92;15.18;;;;;;;;;;5023869;28;20186;-78
2022/01/14 07:15:43;;;;;;;22.95;15.57;;;;;;;;;;5024323;28;20189;-79
2022/01/14 07:18:09;;;;;;;20.63;13.73;;;;;;;;;;5021685;28;20188;-79
2022/01/14 07:20:37;;;;;;;21.88;14.20;;;;;;;;;;5023897;28;20218;-79
2022/01/14 07:23:03;;;;;;;21.70;15.57;;;;;;;;;;5018808;28;20202;-79
2022/01/14 07:25:29;;;;;;;19.05;12.68;;;;;;;;;;5024738;28;20174;-78
2022/01/14 07:27:56;;;;;;;26.00;14.93;;;;;;;;;;5023194;28;20185;-79
2022/01/14 07:30:22;;;;;;;24.67;14.50;;;;;;;;;;5021078;28;20181;-79
2022/01/14 07:32:49;;;;;;;21.45;14.05;;;;;;;;;;5022139;28;20194;-79
2022/01/14 07:35:15;;;;;;;23.52;14.88;;;;;;;;;;5023751;28;20247;-83
2022/01/14 07:37:41;;;;;;;20.48;14.55;;;;;;;;;;5022765;28;20644;-82
2022/01/14 07:40:07;;;;;;;20.08;13.70;;;;;;;;;;5007546;28;20305;-83
2022/01/14 07:42:33;;;;;;;22.67;13.77;;;;;;;;;;4980576;28;20207;-82
2022/01/14 07:44:59;;;;;;;20.20;13.43;;;;;;;;;;4999905;28;20192;-83
2022/01/14 07:47:26;;;;;;;23.40;13.98;;;;;;;;;;4976471;28;20176;-82
2022/01/14 07:49:53;;;;;;;24.40;15.57;;;;;;;;;;5005763;28;20205;-83
2022/01/14 07:52:19;;;;;;;23.00;12.60;;;;;;;;;;4986777;28;20179;-82
2022/01/14 07:54:45;;;;;;;22.88;13.95;;;;;;;;;;4999756;28;20248;-83
2022/01/14 07:57:11;;;;;;;23.35;15.43;;;;;;;;;;4982033;28;20187;-83
2022/01/14 07:59:37;;;;;;;22.13;14.35;;;;;;;;;;4979361;28;20202;-82
2022/01/14 08:02:04;;;;;;;19.10;13.75;;;;;;;;;;4976455;28;20184;-82
2022/01/14 08:04:33;;;;;;;22.50;13.63;;;;;;;;;;4997119;28;20190;-82
2022/01/14 08:07:08;;;;;;;20.58;14.65;;;;;;;;;;4991906;28;20297;-82
2022/01/14 08:09:34;;;;;;;23.55;14.75;;;;;;;;;;4986530;28;20645;-83
2022/01/14 08:12:00;;;;;;;21.92;15.38;;;;;;;;;;5003707;28;20186;-83
2022/01/14 08:14:26;;;;;;;21.95;14.80;;;;;;;;;;4990764;28;20187;-83
2022/01/14 08:16:52;;;;;;;24.08;15.90;;;;;;;;;;5002227;28;20185;-84
2022/01/14 08:19:18;;;;;;;22.38;14.63;;;;;;;;;;4991228;28;20210;-83
2022/01/14 08:21:44;;;;;;;22.70;13.35;;;;;;;;;;5003039;28;20193;-83
2022/01/14 08:24:10;;;;;;;19.75;14.93;;;;;;;;;;5006774;28;20178;-82
2022/01/14 08:26:36;;;;;;;20.63;13.75;;;;;;;;;;5016293;28;20190;-84
2022/01/14 08:29:03;;;;;;;19.65;14.10;;;;;;;;;;5002144;28;20195;-83
2022/01/14 08:31:29;;;;;;;20.15;14.68;;;;;;;;;;4990587;28;20179;-84
2022/01/14 08:33:55;;;;;;;26.67;15.90;;;;;;;;;;5002112;28;20212;-83
2022/01/14 08:36:23;;;;;;;20.65;14.52;;;;;;;;;;4986623;28;20190;-84
2022/01/14 08:38:49;;;;;;;21.25;15.15;;;;;;;;;;4992105;28;20222;-84
2022/01/14 08:41:15;;;;;;;19.60;14.25;;;;;;;;;;5021492;28;20231;-83
2022/01/14 08:43:42;;;;;;;22.38;14.60;;;;;;;;;;5021782;28;20214;-83
2022/01/14 08:46:08;;;;;;;19.08;13.93;;;;;;;;;;5019232;28;20178;-84
2022/01/14 08:48:34;;;;;;;20.52;15.50;;;;;;;;;;5022074;28;20182;-84
2022/01/14 08:51:02;;;;;;;28.30;16.40;;;;;;;;;;5020755;28;20182;-84
2022/01/14 08:53:28;;;;;;;25.33;15.30;;;;;;;;;;5021371;28;20183;-84
2022/01/14 08:55:54;;;;;;;21.15;14.35;;;;;;;;;;5021138;28;20273;-83
2022/01/14 08:58:20;;;;;;;25.15;14.68;;;;;;;;;;5022100;28;20252;-83
2022/01/14 09:00:48;;;;;;;27.08;15.50;;;;;;;;;;5019598;28;20216;-83
2022/01/14 09:03:14;;;;;;;20.92;13.63;;;;;;;;;;5021446;28;20232;-83
2022/01/14 09:05:40;;;;;;;20.45;14.93;;;;;;;;;;5019322;28;20714;-83
2022/01/14 09:08:06;;;;;;;23.65;14.27;;;;;;;;;;5016601;28;20191;-83
2022/01/14 09:10:32;;;;;;;21.02;14.40;;;;;;;;;;5022037;28;20666;-82
2022/01/14 09:12:58;;;;;;;25.30;16.45;;;;;;;;;;5021208;28;20186;-82
2022/01/14 09:15:24;;;;;;;23.55;15.05;;;;;;;;;;5020483;28;20201;-82
2022/01/14 09:17:50;;;;;;;24.45;16.85;;;;;;;;;;5020687;28;20206;-82
2022/01/14 09:20:16;;;;;;;25.30;18.10;;;;;;;;;;5018738;28;20190;-82
2022/01/14 09:22:48;;;;;;;26.42;19.98;;;;;;;;;;5020631;28;20210;-81
2022/01/14 09:25:14;;;;;;;37.17;22.27;;;;;;;;;;5019375;28;20199;-82
2022/01/14 09:27:40;;;;;;;33.65;21.75;;;;;;;;;;5018453;28;20254;-81
2022/01/14 09:30:07;;;;;;;28.15;20.70;;;;;;;;;;5010576;28;20598;-81
2022/01/14 09:32:33;;;;;;;31.90;20.70;;;;;;;;;;5008035;28;20197;-82
2022/01/14 09:35:03;;;;;;;30.50;20.00;;;;;;;;;;5014065;28;20210;-81
2022/01/14 09:37:29;;;;;;;29.15;19.50;;;;;;;;;;5018929;28;20179;-81
2022/01/14 09:39:55;;;;;;;33.20;20.23;;;;;;;;;;5021323;28;20639;-81
2022/01/14 09:42:21;;;;;;;29.23;19.75;;;;;;;;;;5021442;28;20233;-81
2022/01/14 09:44:47;;;;;;;33.60;21.05;;;;;;;;;;5020488;28;20266;-81
2022/01/14 09:47:17;;;;;;;33.10;21.77;;;;;;;;;;5019532;28;20589;-80
2022/01/14 09:49:44;;;;;;;31.48;21.40;;;;;;;;;;5022745;28;20175;-80
2022/01/14 09:52:11;;;;;;;31.77;22.70;;;;;;;;;;5020967;28;20637;-80
2022/01/14 09:54:37;;;;;;;35.53;23.50;;;;;;;;;;5020806;28;20203;-80
2022/01/14 09:57:03;;;;;;;37.10;25.45;;;;;;;;;;5019704;28;20193;-80
2022/01/14 09:59:29;;;;;;;31.25;22.35;;;;;;;;;;5020268;28;20182;-80
2022/01/14 10:01:57;;;;;;;34.55;21.02;;;;;;;;;;5021390;28;20643;-81
2022/01/14 10:04:23;;;;;;;36.13;23.73;;;;;;;;;;5021899;28;20175;-80
2022/01/14 10:06:53;;;;;;;28.90;21.40;;;;;;;;;;5021165;28;20186;-80
2022/01/14 10:09:21;;;;;;;29.75;21.33;;;;;;;;;;5013555;28;20210;-80
2022/01/14 10:12:06;;;;;;;35.35;22.90;;;;;;;;;;5020029;28;20206;-81
2022/01/14 10:14:33;;;;;;;34.80;22.25;;;;;;;;;;5020779;28;20197;-80
2022/01/14 10:17:01;;;;;;;33.03;22.67;;;;;;;;;;5021001;28;20232;-80
2022/01/14 10:19:28;;;;;;;32.42;21.98;;;;;;;;;;5022345;28;20683;-81
2022/01/14 10:21:55;;;;;;;33.70;21.85;;;;;;;;;;5023271;28;20202;-81
2022/01/14 10:24:29;;;;;;;32.08;23.23;;;;;;;;;;5024596;28;20670;-80
2022/01/14 10:27:00;;;;;;;44.88;24.73;;;;;;;;;;5024720;28;20228;-80
2022/01/14 10:29:44;;;;;;;34.92;20.73;;;;;;;;;;5024575;28;20178;-80
2022/01/14 10:32:12;;;;;;;32.20;21.83;;;;;;;;;;5007037;28;20210;-81
2022/01/14 10:34:38;;;;;;;33.33;23.77;;;;;;;;;;5026725;28;20174;-81
2022/01/14 10:37:09;;;;;;;35.35;22.40;;;;;;;;;;5024498;28;20187;-80
2022/01/14 10:39:42;;;;;;;30.80;20.17;;;;;;;;;;5015578;28;20226;-81
2022/01/14 10:42:21;;;;;;;42.58;23.45;;;;;;;;;;4992000;28;20193;-81
2022/01/14 10:44:47;;;;;;;29.83;21.45;;;;;;;;;;5006685;28;20186;-81
2022/01/14 10:47:14;;;;;;;30.48;20.30;;;;;;;;;;4987230;28;20242;-81
2022/01/14 10:49:42;;;;;;;33.90;22.13;;;;;;;;;;5010340;28;20175;-81
2022/01/14 10:52:12;;;;;;;37.88;23.55;;;;;;;;;;4987410;28;20580;-81
2022/01/14 10:54:43;;;;;;;31.15;22.33;;;;;;;;;;5003555;28;20183;-81
2022/01/14 10:57:13;;;;;;;33.53;23.00;;;;;;;;;;4991855;28;20191;-81
2022/01/14 10:59:39;;;;;;;34.83;23.25;;;;;;;;;;4991491;28;20191;-81
2022/01/14 11:02:26;;;;;;;33.50;22.95;;;;;;;;;;5003726;28;20184;-81
2022/01/14 11:05:28;;;;;;;37.35;23.33;;;;;;;;;;4989416;28;20186;-81
2022/01/14 11:07:54;;;;;;;30.55;22.23;;;;;;;;;;4924538;29;20177;-81
2022/01/14 11:10:20;;;;;;;34.38;23.33;;;;;;;;;;4929142;29;20402;-81
2022/01/14 11:12:47;;;;;;;34.58;23.30;;;;;;;;;;4928826;29;20193;-81
2022/01/14 11:15:13;;;;;;;34.00;23.67;;;;;;;;;;4910489;29;20231;-81
2022/01/14 11:17:40;;;;;;;42.15;23.00;;;;;;;;;;4901964;29;20269;-81
2022/01/14 11:20:07;;;;;;;32.60;21.77;;;;;;;;;;4924764;29;20193;-81
2022/01/14 11:25:18;;;;;;;34.15;22.30;;;;;;;;;;4926228;29;20197;-80
2022/01/14 11:27:49;;;;;;;44.67;26.60;;;;;;;;;;4914499;29;20197;-80
2022/01/14 11:30:15;;;;;;;40.20;23.73;;;;;;;;;;4926885;29;20193;-80
2022/01/14 11:32:51;;;;;;;35.17;24.88;;;;;;;;;;4922984;29;20193;-80
2022/01/14 11:35:21;;;;;;;39.60;25.15;;;;;;;;;;4909308;29;20201;-80
2022/01/14 11:37:47;;;;;;;34.80;23.73;;;;;;;;;;4909254;29;20197;-80
2022/01/14 11:40:15;;;;;;;40.80;27.60;;;;;;;;;;4928303;29;20225;-80
2022/01/14 11:42:41;;;;;;;38.10;23.13;;;;;;;;;;5007395;28;20640;-80
2022/01/14 11:45:07;;;;;;;36.28;25.85;;;;;;;;;;5021234;28;20212;-80
2022/01/14 11:47:39;;;;;;;35.78;26.58;;;;;;;;;;5008579;28;20296;-80
2022/01/14 11:50:07;;;;;;;35.25;24.83;;;;;;;;;;5020316;28;20178;-80
2022/01/14 11:52:33;;;;;;;34.80;23.88;;;;;;;;;;5009877;28;20207;-82
2022/01/14 11:54:59;;;;;;;43.47;24.73;;;;;;;;;;5020650;28;20187;-81
2022/01/14 11:57:47;;;;;;;39.78;25.35;;;;;;;;;;5022146;28;20438;-81
2022/01/14 12:00:33;;;;;;;37.15;25.02;;;;;;;;;;5010049;28;20187;-81
2022/01/14 12:02:59;;;;;;;33.75;24.38;;;;;;;;;;5021809;28;20205;-80
2022/01/14 12:05:31;;;;;;;34.72;23.83;;;;;;;;;;5020840;28;20187;-80
2022/01/14 12:08:10;;;;;;;35.08;21.42;;;;;;;;;;5019983;28;20603;-80
2022/01/14 12:10:59;;;;;;;32.38;21.55;;;;;;;;;;5020214;28;20202;-80
2022/01/14 12:13:30;;;;;;;33.45;22.27;;;;;;;;;;5016695;28;20201;-80
2022/01/14 12:16:03;;;;;;;32.45;22.92;;;;;;;;;;5017892;28;20209;-80
2022/01/14 12:18:45;;;;;;;31.45;21.95;;;;;;;;;;5020056;28;20194;-80
2022/01/14 12:21:11;;;;;;;33.08;22.00;;;;;;;;;;5021659;28;20301;-80
2022/01/14 12:23:37;;;;;;;31.48;23.20;;;;;;;;;;5018694;28;20432;-80
2022/01/14 12:26:17;;;;;;;31.15;22.17;;;;;;;;;;5019639;28;20261;-80
2022/01/14 12:28:43;;;;;;;30.92;22.60;;;;;;;;;;5020023;28;20193;-80
2022/01/14 12:31:09;;;;;;;32.53;21.55;;;;;;;;;;5020478;28;20194;-80
2022/01/14 12:33:44;;;;;;;37.40;21.52;;;;;;;;;;5020777;28;20182;-80
2022/01/14 12:36:17;;;;;;;27.88;20.33;;;;;;;;;;5021275;28;20443;-80
2022/01/14 12:38:44;;;;;;;35.42;20.48;;;;;;;;;;5020942;28;20213;-81
2022/01/14 12:41:17;;;;;;;34.70;21.88;;;;;;;;;;4999922;28;20664;-80
2022/01/14 12:43:49;;;;;;;31.27;20.95;;;;;;;;;;4987106;28;20210;-80
2022/01/14 12:46:35;;;;;;;32.85;20.88;;;;;;;;;;4984030;28;20262;-79
2022/01/14 12:49:08;;;;;;;27.02;20.20;;;;;;;;;;5000575;28;20189;-79
2022/01/14 12:51:35;;;;;;;34.03;22.58;;;;;;;;;;4974019;28;20180;-81
2022/01/14 12:54:04;;;;;;;34.40;20.95;;;;;;;;;;4971785;28;20179;-80
2022/01/14 12:56:31;;;;;;;31.23;21.65;;;;;;;;;;4978016;28;20179;-80
2022/01/14 12:59:09;;;;;;;33.67;21.15;;;;;;;;;;4978148;28;20176;-79
2022/01/14 13:01:37;;;;;;;31.98;20.75;;;;;;;;;;4973235;28;20191;-80
2022/01/14 13:04:05;;;;;;;29.77;21.05;;;;;;;;;;4971307;28;20222;-80
2022/01/14 13:06:46;;;;;;;30.33;21.27;;;;;;;;;;4999099;28;20190;-79
2022/01/14 13:09:13;;;;;;;31.27;20.35;;;;;;;;;;4998980;28;20194;-79
2022/01/14 13:11:51;;;;;;;36.83;21.85;;;;;;;;;;4980987;28;20273;-79
2022/01/14 13:14:23;;;;;;;28.38;20.27;;;;;;;;;;4986992;28;20189;-79
2022/01/14 13:16:50;;;;;;;30.98;20.90;;;;;;;;;;5000423;28;20188;-79
2022/01/14 13:19:22;;;;;;;27.60;18.92;;;;;;;;;;5005972;28;20334;-79
2022/01/14 13:21:48;;;;;;;26.73;19.38;;;;;;;;;;4989635;28;20211;-80
2022/01/14 13:24:27;;;;;;;25.70;19.05;;;;;;;;;;4990138;28;20257;-79
2022/01/14 13:27:09;;;;;;;28.48;18.42;;;;;;;;;;4989546;28;20236;-79
2022/01/14 13:29:36;;;;;;;26.25;17.27;;;;;;;;;;4983430;28;20206;-80
2022/01/14 13:32:03;;;;;;;25.10;17.95;;;;;;;;;;5017327;28;20215;-80
2022/01/14 13:34:29;;;;;;;27.55;17.85;;;;;;;;;;4990899;28;20186;-80
2022/01/14 13:36:55;;;;;;;25.05;17.05;;;;;;;;;;5004369;28;20187;-80
2022/01/14 13:39:21;;;;;;;26.10;19.10;;;;;;;;;;5005496;28;20223;-80
2022/01/14 13:41:48;;;;;;;24.95;18.73;;;;;;;;;;5002454;28;20203;-80
2022/01/14 13:44:16;;;;;;;27.50;18.63;;;;;;;;;;5009766;28;20211;-80
2022/01/14 13:46:49;;;;;;;28.77;18.27;;;;;;;;;;4988519;28;20210;-81
2022/01/14 13:49:20;;;;;;;27.63;18.00;;;;;;;;;;4989626;28;20197;-80
2022/01/14 13:51:47;;;;;;;23.60;17.50;;;;;;;;;;4995231;28;20182;-80
2022/01/14 13:54:17;;;;;;;23.13;16.17;;;;;;;;;;4992629;28;20191;-79
2022/01/14 13:56:43;;;;;;;22.90;15.82;;;;;;;;;;4986666;28;20198;-80
2022/01/14 13:59:09;;;;;;;25.00;17.23;;;;;;;;;;4996440;28;20183;-81
2022/01/14 14:01:36;;;;;;;24.33;17.05;;;;;;;;;;5007843;28;20186;-80
2022/01/14 14:04:14;;;;;;;22.63;16.17;;;;;;;;;;4991915;28;20203;-80
2022/01/14 14:06:44;;;;;;;25.58;17.92;;;;;;;;;;4999660;28;20179;-79
2022/01/14 14:09:22;;;;;;;25.48;16.75;;;;;;;;;;4990080;28;20183;-80
2022/01/14 14:12:07;;;;;;;23.05;17.05;;;;;;;;;;4986042;28;20192;-80
2022/01/14 14:17:17;;;;;;;26.52;18.17;;;;;;;;;;4999775;28;20198;-80
2022/01/14 14:19:54;;;;;;;24.80;19.20;;;;;;;;;;4987401;28;20267;-81
2022/01/14 14:22:23;;;;;;;24.98;15.75;;;;;;;;;;4989228;28;20233;-80
2022/01/14 14:24:55;;;;;;;28.65;17.77;;;;;;;;;;4992450;28;20179;-80
2022/01/14 14:27:22;;;;;;;22.25;17.52;;;;;;;;;;5007111;28;20183;-81
2022/01/14 14:29:49;;;;;;;23.95;16.05;;;;;;;;;;5002712;28;20550;-80
2022/01/14 14:32:18;;;;;;;26.58;16.52;;;;;;;;;;4993323;28;20195;-80
2022/01/14 14:34:44;;;;;;;21.85;15.80;;;;;;;;;;4991372;28;20644;-80
2022/01/14 14:37:10;;;;;;;27.58;16.45;;;;;;;;;;5008445;28;20175;-81
2022/01/14 14:39:36;;;;;;;27.35;16.77;;;;;;;;;;5012333;28;20226;-80
2022/01/14 14:42:02;;;;;;;23.52;16.52;;;;;;;;;;5023910;28;20178;-79
2022/01/14 14:44:28;;;;;;;23.73;16.27;;;;;;;;;;5010665;28;20249;-79
2022/01/14 14:46:54;;;;;;;20.20;15.60;;;;;;;;;;5023039;28;20171;-79
2022/01/14 14:49:20;;;;;;;24.70;14.98;;;;;;;;;;5013510;28;20437;-79
2022/01/14 14:51:46;;;;;;;23.20;16.73;;;;;;;;;;5019975;28;20190;-79
2022/01/14 14:54:12;;;;;;;31.00;15.10;;;;;;;;;;5022438;28;20190;-79
2022/01/14 14:56:38;;;;;;;25.23;15.25;;;;;;;;;;5022424;28;20441;-79
2022/01/14 14:59:04;;;;;;;19.23;15.97;;;;;;;;;;5021195;28;20221;-80
2022/01/14 15:01:30;;;;;;;27.67;17.67;;;;;;;;;;5024477;28;20456;-80
2022/01/14 15:03:56;;;;;;;24.02;16.42;;;;;;;;;;5016839;28;20210;-82